createdAt,value
2023-02-08T00:00:04.510Z,102542.16
2023-02-08T00:02:35.715Z,102546.50
2023-02-08T00:05:03.863Z,102542.91
2023-02-08T00:07:33.374Z,102544.72
2023-02-08T00:10:01.461Z,102544.66
2023-02-08T00:12:30.934Z,102530.63
2023-02-08T00:14:59.080Z,102545.47
2023-02-08T00:17:27.158Z,102532.19
2023-02-08T00:19:55.230Z,102540.09
2023-02-08T00:22:23.425Z,102529.63
2023-02-08T00:24:52.874Z,102531.72
2023-02-08T00:27:21.257Z,102527.38
2023-02-08T00:29:50.359Z,102515.84
2023-02-08T00:32:18.448Z,102527.25
2023-02-08T00:34:46.536Z,102526.53
2023-02-08T00:37:14.713Z,102528.19
2023-02-08T00:39:43.356Z,102525.47
2023-02-08T00:42:12.730Z,102513.16
2023-02-08T00:44:40.897Z,102513.09
2023-02-08T00:47:09.020Z,102516.66
2023-02-08T00:49:37.696Z,102521.81
2023-02-08T00:52:06.250Z,102507.00
2023-02-08T00:54:34.442Z,102507.78
2023-02-08T00:57:02.503Z,102520.94
2023-02-08T00:59:32.000Z,102514.75
2023-02-08T01:02:00.177Z,102520.78
2023-02-08T01:04:28.278Z,102520.69
2023-02-08T01:06:56.304Z,102525.91
2023-02-08T01:09:24.398Z,102519.91
2023-02-08T01:11:52.493Z,102516.53
2023-02-08T01:14:20.577Z,102508.56
2023-02-08T01:16:50.031Z,102514.69
2023-02-08T01:19:18.199Z,102513.84
2023-02-08T01:21:46.299Z,102525.44
2023-02-08T01:24:14.370Z,102517.56
2023-02-08T01:26:42.437Z,102520.22
2023-02-08T01:29:10.582Z,102516.91
2023-02-08T01:31:40.803Z,102516.84
2023-02-08T01:34:10.777Z,102517.84
2023-02-08T01:36:39.262Z,102509.03
2023-02-08T01:39:09.381Z,102513.44
2023-02-08T01:41:38.433Z,102514.16
2023-02-08T01:44:29.895Z,102511.72
2023-02-08T01:46:58.132Z,102503.75
2023-02-08T01:49:29.218Z,102507.28
2023-02-08T01:51:59.470Z,102520.34
2023-02-08T01:54:29.063Z,102518.66
2023-02-08T01:56:57.390Z,102527.38
2023-02-08T01:59:28.330Z,102522.91
2023-02-08T02:01:57.638Z,102517.69
2023-02-08T02:04:27.513Z,102513.44
2023-02-08T02:06:57.170Z,102503.72
2023-02-08T02:09:27.526Z,102511.66
2023-02-08T02:11:56.163Z,102511.84
2023-02-08T02:14:26.166Z,102512.81
2023-02-08T02:16:54.354Z,102510.31
2023-02-08T02:19:27.219Z,102504.25
2023-02-08T02:22:04.014Z,102506.69
2023-02-08T02:24:52.825Z,102501.41
2023-02-08T02:27:27.491Z,102512.69
2023-02-08T02:30:21.309Z,102505.03
2023-02-08T02:32:57.138Z,102517.16
2023-02-08T02:35:29.413Z,102517.16
2023-02-08T02:38:08.791Z,102509.25
2023-02-08T02:40:42.854Z,102501.38
2023-02-08T02:43:32.888Z,102507.50
2023-02-08T02:46:08.659Z,102513.81
2023-02-08T02:48:42.804Z,102515.50
2023-02-08T02:51:11.932Z,102516.34
2023-02-08T02:53:46.328Z,102523.53
2023-02-08T02:56:16.787Z,102514.66
2023-02-08T02:58:45.786Z,102524.22
2023-02-08T03:01:13.924Z,102525.91
2023-02-08T03:03:43.480Z,102512.69
2023-02-08T03:06:13.709Z,102518.88
2023-02-08T03:09:05.733Z,102518.03
2023-02-08T03:11:35.131Z,102525.88
2023-02-08T03:14:05.421Z,102518.81
2023-02-08T03:16:38.797Z,102524.28
2023-02-08T03:19:11.356Z,102528.50
2023-02-08T03:21:42.047Z,102530.22
2023-02-08T03:24:16.054Z,102510.91
2023-02-08T03:26:50.943Z,102514.47
2023-02-08T03:29:22.346Z,102512.69
2023-02-08T03:31:55.523Z,102507.59
2023-02-08T03:34:30.332Z,102502.47
2023-02-08T03:37:01.536Z,102495.28
2023-02-08T03:39:31.561Z,102490.94
2023-02-08T03:42:00.954Z,102490.97
2023-02-08T03:44:31.959Z,102483.97
2023-02-08T03:47:02.857Z,102469.91
2023-02-08T03:49:34.945Z,102474.22
2023-02-08T03:52:04.817Z,102462.88
2023-02-08T03:54:36.330Z,102471.59
2023-02-08T03:57:08.025Z,102474.13
2023-02-08T03:59:38.980Z,102471.41
2023-02-08T04:02:08.983Z,102468.75
2023-02-08T04:04:40.457Z,102469.56
2023-02-08T04:07:08.408Z,102458.25
2023-02-08T04:09:38.764Z,102462.66
2023-02-08T04:12:07.276Z,102451.56
2023-02-08T04:14:35.340Z,102454.28
2023-02-08T04:17:03.312Z,102449.19
2023-02-08T04:19:31.626Z,102448.19
2023-02-08T04:22:01.004Z,102445.59
2023-02-08T04:24:29.148Z,102450.91
2023-02-08T04:26:57.319Z,102453.56
2023-02-08T04:29:25.451Z,102458.81
2023-02-08T04:31:53.566Z,102458.75
2023-02-08T04:34:21.746Z,102457.88
2023-02-08T04:36:50.010Z,102452.59
2023-02-08T04:39:19.398Z,102456.09
2023-02-08T04:41:47.487Z,102448.16
2023-02-08T04:44:16.045Z,102442.75
2023-02-08T04:46:44.290Z,102440.13
2023-02-08T04:49:12.393Z,102436.63
2023-02-08T04:51:40.527Z,102430.31
2023-02-08T04:54:08.789Z,102439.97
2023-02-08T04:56:38.766Z,102436.38
2023-02-08T04:59:06.832Z,102429.25
2023-02-08T05:01:34.961Z,102427.44
2023-02-08T05:04:03.040Z,102426.56
2023-02-08T05:06:31.075Z,102432.63
2023-02-08T05:08:59.225Z,102424.59
2023-02-08T05:11:27.645Z,102426.28
2023-02-08T05:13:57.092Z,102434.06
2023-02-08T05:16:25.152Z,102427.75
2023-02-08T05:18:53.171Z,102432.94
2023-02-08T05:21:24.060Z,102413.50
2023-02-08T05:23:52.193Z,102415.13
2023-02-08T05:26:20.372Z,102415.97
2023-02-08T05:28:48.551Z,102416.84
2023-02-08T05:31:19.328Z,102420.25
2023-02-08T05:33:47.800Z,102419.34
2023-02-08T05:36:15.890Z,102422.75
2023-02-08T05:38:43.984Z,102422.75
2023-02-08T05:41:12.073Z,102419.13
2023-02-08T05:43:40.162Z,102427.81
2023-02-08T05:46:08.250Z,102430.38
2023-02-08T05:48:37.733Z,102428.59
2023-02-08T05:51:05.821Z,102425.03
2023-02-08T05:53:33.972Z,102423.34
2023-02-08T05:56:02.009Z,102417.19
2023-02-08T05:58:30.419Z,102419.69
2023-02-08T06:00:58.429Z,102422.19
2023-02-08T06:03:26.645Z,102413.34
2023-02-08T06:05:56.127Z,102414.19
2023-02-08T06:08:24.242Z,102404.59
2023-02-08T06:10:52.407Z,102401.91
2023-02-08T06:13:20.442Z,102399.19
2023-02-08T06:15:48.507Z,102414.97
2023-02-08T06:18:16.734Z,102407.97
2023-02-08T06:20:44.826Z,102409.56
2023-02-08T06:23:14.248Z,102410.56
2023-02-08T06:25:42.393Z,102415.75
2023-02-08T06:28:10.975Z,102407.91
2023-02-08T06:30:39.765Z,102408.75
2023-02-08T06:33:08.047Z,102406.03
2023-02-08T06:35:36.138Z,102403.28
2023-02-08T06:38:04.253Z,102401.72
2023-02-08T06:40:33.733Z,102397.50
2023-02-08T06:43:01.892Z,102390.41
2023-02-08T06:45:29.922Z,102385.97
2023-02-08T06:47:58.034Z,102382.38
2023-02-08T06:50:26.093Z,102387.59
2023-02-08T06:52:54.156Z,102386.59
2023-02-08T06:55:22.219Z,102387.34
2023-02-08T06:57:54.290Z,102379.44
2023-02-08T07:00:22.424Z,102380.22
2023-02-08T07:02:51.575Z,102384.50
2023-02-08T07:05:19.875Z,102383.66
2023-02-08T07:07:49.063Z,102382.75
2023-02-08T07:10:17.295Z,102375.66
2023-02-08T07:12:45.416Z,102380.22
2023-02-08T07:15:14.936Z,102376.75
2023-02-08T07:17:42.944Z,102376.66
2023-02-08T07:20:11.553Z,102377.50
2023-02-08T07:22:39.675Z,102380.06
2023-02-08T07:25:08.806Z,102376.97
2023-02-08T07:27:37.162Z,102375.88
2023-02-08T07:30:05.654Z,102379.44
2023-02-08T07:32:35.210Z,102377.69
2023-02-08T07:35:03.341Z,102376.03
2023-02-08T07:37:31.911Z,102377.81
2023-02-08T07:39:59.969Z,102374.97
2023-02-08T07:42:28.007Z,102362.50
2023-02-08T07:45:09.920Z,102371.19
2023-02-08T07:47:39.375Z,102373.69
2023-02-08T07:50:07.850Z,102369.25
2023-02-08T07:52:35.882Z,102363.16
2023-02-08T07:55:03.942Z,102361.34
2023-02-08T07:57:32.121Z,102360.25
2023-02-08T08:00:00.183Z,102357.47
2023-02-08T08:02:28.284Z,102352.34
2023-02-08T08:04:57.797Z,102359.50
2023-02-08T08:07:25.831Z,102357.94
2023-02-08T08:09:53.910Z,102359.78
2023-02-08T08:12:22.107Z,102349.25
2023-02-08T08:14:50.093Z,102354.47
2023-02-08T08:17:18.479Z,102349.41
2023-02-08T08:19:46.659Z,102347.50
2023-02-08T08:22:16.157Z,102339.56
2023-02-08T08:24:44.191Z,102326.63
2023-02-08T08:27:12.223Z,102338.00
2023-02-08T08:29:40.666Z,102336.91
2023-02-08T08:32:11.496Z,102329.00
2023-02-08T08:34:39.864Z,102329.78
2023-02-08T08:37:07.925Z,102326.38
2023-02-08T08:39:38.181Z,102327.25
2023-02-08T08:42:06.264Z,102318.34
2023-02-08T08:44:34.451Z,102312.88
2023-02-08T08:47:02.559Z,102314.41
2023-02-08T08:49:30.668Z,102310.09
2023-02-08T08:51:59.153Z,102305.53
2023-02-08T08:54:27.254Z,102309.72
2023-02-08T08:56:56.672Z,102308.75
2023-02-08T08:59:25.144Z,102314.84
2023-02-08T09:01:53.444Z,102301.69
2023-02-08T09:04:22.964Z,102306.16
2023-02-08T09:06:51.287Z,102302.41
2023-02-08T09:09:19.371Z,102297.00
2023-02-08T09:11:47.717Z,102285.31
2023-02-08T09:14:17.247Z,102278.25
2023-02-08T09:16:48.177Z,102278.16
2023-02-08T09:19:16.719Z,102272.66
2023-02-08T09:21:44.969Z,102268.19
2023-02-08T09:24:13.207Z,102265.66
2023-02-08T09:26:41.336Z,102262.81
2023-02-08T09:29:09.398Z,102259.41
2023-02-08T09:31:39.740Z,102245.28
2023-02-08T09:34:08.621Z,102259.63
2023-02-08T09:36:37.283Z,102258.34
2023-02-08T09:39:07.196Z,102256.50
2023-02-08T09:41:42.996Z,102258.34
2023-02-08T09:44:16.785Z,102255.47
2023-02-08T09:46:50.616Z,102260.47
2023-02-08T09:49:20.797Z,102254.06
2023-02-08T09:51:52.523Z,102250.22
2023-02-08T09:54:28.015Z,102234.09
2023-02-08T09:56:56.703Z,102234.81
2023-02-08T09:59:27.092Z,102232.81
2023-02-08T10:02:00.853Z,102235.19
2023-02-08T10:04:33.592Z,102236.31
2023-02-08T10:07:01.801Z,102235.38
2023-02-08T10:09:30.096Z,102225.66
